sensor_id;sensor_type;location;lat;lon;timestamp;P1;durP1;ratioP1;P2;durP2;ratioP2
11907;SDS011;6014;47.690;9.130;2023-04-03T00:02:32;5.80;;;3.10;;
11907;SDS011;6014;47.690;9.130;2023-04-03T00:05:01;5.90;;;2.90;;
11907;SDS011;6014;47.690;9.130;2023-04-03T00:07:32;4.30;;;2.33;;
11907;SDS011;6014;47.690;9.130;2023-04-03T00:10:00;5.63;;;3.17;;
11907;SDS011;6014;47.690;9.130;2023-04-03T00:12:29;5.27;;;2.83;;
11907;SDS011;6014;47.690;9.130;2023-04-03T00:14:57;4.83;;;2.80;;
11907;SDS011;6014;47.690;9.130;2023-04-03T00:17:25;5.97;;;2.90;;
11907;SDS011;6014;47.690;9.130;2023-04-03T00:20:00;5.70;;;3.27;;
11907;SDS011;6014;47.690;9.130;2023-04-03T00:22:28;5.00;;;2.90;;
11907;SDS011;6014;47.690;9.130;2023-04-03T00:24:58;7.90;;;3.53;;
11907;SDS011;6014;47.690;9.130;2023-04-03T00:27:26;5.30;;;3.30;;
11907;SDS011;6014;47.690;9.130;2023-04-03T00:29:54;5.20;;;3.20;;
11907;SDS011;6014;47.690;9.130;2023-04-03T00:32:22;6.00;;;3.20;;
11907;SDS011;6014;47.690;9.130;2023-04-03T00:34:52;4.67;;;3.20;;
11907;SDS011;6014;47.690;9.130;2023-04-03T00:37:30;6.30;;;3.73;;
11907;SDS011;6014;47.690;9.130;2023-04-03T00:40:04;5.23;;;3.10;;
11907;SDS011;6014;47.690;9.130;2023-04-03T00:42:35;5.77;;;3.23;;
11907;SDS011;6014;47.690;9.130;2023-04-03T00:45:26;5.53;;;3.50;;
11907;SDS011;6014;47.690;9.130;2023-04-03T00:47:58;8.03;;;3.57;;
11907;SDS011;6014;47.690;9.130;2023-04-03T00:50:28;4.67;;;3.00;;
11907;SDS011;6014;47.690;9.130;2023-04-03T00:52:58;6.70;;;3.67;;
11907;SDS011;6014;47.690;9.130;2023-04-03T00:55:28;5.70;;;3.70;;
11907;SDS011;6014;47.690;9.130;2023-04-03T00:57:57;5.63;;;3.40;;
11907;SDS011;6014;47.690;9.130;2023-04-03T01:00:27;6.23;;;3.30;;
11907;SDS011;6014;47.690;9.130;2023-04-03T01:03:03;5.23;;;3.30;;
11907;SDS011;6014;47.690;9.130;2023-04-03T01:05:33;5.10;;;3.23;;
11907;SDS011;6014;47.690;9.130;2023-04-03T01:08:03;6.10;;;3.20;;
11907;SDS011;6014;47.690;9.130;2023-04-03T01:10:33;6.80;;;4.03;;
11907;SDS011;6014;47.690;9.130;2023-04-03T01:13:02;5.70;;;3.30;;
11907;SDS011;6014;47.690;9.130;2023-04-03T01:15:45;6.90;;;3.27;;
11907;SDS011;6014;47.690;9.130;2023-04-03T01:18:13;5.70;;;3.20;;
11907;SDS011;6014;47.690;9.130;2023-04-03T01:23:53;6.47;;;3.97;;
11907;SDS011;6014;47.690;9.130;2023-04-03T01:26:33;6.10;;;3.43;;
11907;SDS011;6014;47.690;9.130;2023-04-03T01:29:02;6.50;;;4.07;;
11907;SDS011;6014;47.690;9.130;2023-04-03T01:31:39;5.70;;;3.30;;
11907;SDS011;6014;47.690;9.130;2023-04-03T01:34:16;6.10;;;3.17;;
11907;SDS011;6014;47.690;9.130;2023-04-03T01:36:44;5.53;;;3.30;;
11907;SDS011;6014;47.690;9.130;2023-04-03T01:39:12;5.53;;;3.17;;
11907;SDS011;6014;47.690;9.130;2023-04-03T01:41:41;6.20;;;3.37;;
11907;SDS011;6014;47.690;9.130;2023-04-03T01:44:09;5.00;;;2.93;;
11907;SDS011;6014;47.690;9.130;2023-04-03T01:46:40;5.13;;;3.03;;
11907;SDS011;6014;47.690;9.130;2023-04-03T01:49:16;4.23;;;2.60;;
11907;SDS011;6014;47.690;9.130;2023-04-03T01:51:44;6.07;;;2.90;;
11907;SDS011;6014;47.690;9.130;2023-04-03T01:54:12;4.70;;;2.70;;
11907;SDS011;6014;47.690;9.130;2023-04-03T01:56:40;4.33;;;2.60;;
11907;SDS011;6014;47.690;9.130;2023-04-03T01:59:10;5.10;;;2.80;;
11907;SDS011;6014;47.690;9.130;2023-04-03T02:01:42;3.90;;;2.50;;
11907;SDS011;6014;47.690;9.130;2023-04-03T02:04:12;4.83;;;2.83;;
11907;SDS011;6014;47.690;9.130;2023-04-03T02:06:40;4.57;;;2.93;;
11907;SDS011;6014;47.690;9.130;2023-04-03T02:09:16;5.57;;;2.77;;
11907;SDS011;6014;47.690;9.130;2023-04-03T02:11:44;7.10;;;3.50;;
11907;SDS011;6014;47.690;9.130;2023-04-03T02:14:12;5.23;;;3.33;;
11907;SDS011;6014;47.690;9.130;2023-04-03T02:16:42;6.10;;;3.63;;
11907;SDS011;6014;47.690;9.130;2023-04-03T02:19:11;6.03;;;3.27;;
11907;SDS011;6014;47.690;9.130;2023-04-03T02:21:39;5.53;;;3.20;;
11907;SDS011;6014;47.690;9.130;2023-04-03T02:24:09;5.50;;;3.40;;
11907;SDS011;6014;47.690;9.130;2023-04-03T02:26:37;6.00;;;3.50;;
11907;SDS011;6014;47.690;9.130;2023-04-03T02:29:05;5.47;;;3.10;;
11907;SDS011;6014;47.690;9.130;2023-04-03T02:31:33;6.13;;;3.53;;
11907;SDS011;6014;47.690;9.130;2023-04-03T02:34:03;6.40;;;3.30;;
11907;SDS011;6014;47.690;9.130;2023-04-03T02:36:31;5.30;;;3.37;;
11907;SDS011;6014;47.690;9.130;2023-04-03T02:38:59;5.87;;;3.63;;
11907;SDS011;6014;47.690;9.130;2023-04-03T02:41:27;6.67;;;3.97;;
11907;SDS011;6014;47.690;9.130;2023-04-03T02:44:01;6.10;;;3.67;;
11907;SDS011;6014;47.690;9.130;2023-04-03T02:46:29;6.60;;;3.43;;
11907;SDS011;6014;47.690;9.130;2023-04-03T02:48:59;6.90;;;3.77;;
11907;SDS011;6014;47.690;9.130;2023-04-03T02:51:28;7.50;;;3.60;;
11907;SDS011;6014;47.690;9.130;2023-04-03T02:54:03;6.70;;;3.70;;
11907;SDS011;6014;47.690;9.130;2023-04-03T02:56:31;6.97;;;3.90;;
11907;SDS011;6014;47.690;9.130;2023-04-03T02:59:00;7.23;;;3.73;;
11907;SDS011;6014;47.690;9.130;2023-04-03T03:01:28;6.53;;;3.40;;
11907;SDS011;6014;47.690;9.130;2023-04-03T03:04:12;9.77;;;4.20;;
11907;SDS011;6014;47.690;9.130;2023-04-03T03:06:42;6.57;;;4.10;;
11907;SDS011;6014;47.690;9.130;2023-04-03T03:09:11;5.90;;;3.73;;
11907;SDS011;6014;47.690;9.130;2023-04-03T03:11:40;7.40;;;3.43;;
11907;SDS011;6014;47.690;9.130;2023-04-03T03:14:14;5.73;;;3.30;;
11907;SDS011;6014;47.690;9.130;2023-04-03T03:16:42;5.83;;;3.47;;
11907;SDS011;6014;47.690;9.130;2023-04-03T03:19:11;5.70;;;3.43;;
11907;SDS011;6014;47.690;9.130;2023-04-03T03:24:17;6.37;;;3.50;;
11907;SDS011;6014;47.690;9.130;2023-04-03T03:26:45;5.70;;;3.17;;
11907;SDS011;6014;47.690;9.130;2023-04-03T03:29:13;5.53;;;2.73;;
11907;SDS011;6014;47.690;9.130;2023-04-03T03:31:47;6.43;;;2.80;;
11907;SDS011;6014;47.690;9.130;2023-04-03T03:34:16;5.73;;;3.13;;
11907;SDS011;6014;47.690;9.130;2023-04-03T03:36:45;6.33;;;3.13;;
11907;SDS011;6014;47.690;9.130;2023-04-03T03:39:14;5.77;;;3.17;;
11907;SDS011;6014;47.690;9.130;2023-04-03T03:41:42;5.40;;;3.27;;
11907;SDS011;6014;47.690;9.130;2023-04-03T03:44:12;5.47;;;3.17;;
11907;SDS011;6014;47.690;9.130;2023-04-03T03:46:43;6.70;;;3.03;;
11907;SDS011;6014;47.690;9.130;2023-04-03T03:49:11;5.30;;;3.23;;
11907;SDS011;6014;47.690;9.130;2023-04-03T03:51:39;5.23;;;2.90;;
11907;SDS011;6014;47.690;9.130;2023-04-03T03:54:07;6.10;;;2.80;;
11907;SDS011;6014;47.690;9.130;2023-04-03T03:56:38;4.70;;;2.80;;
11907;SDS011;6014;47.690;9.130;2023-04-03T03:59:06;5.03;;;2.93;;
11907;SDS011;6014;47.690;9.130;2023-04-03T04:04:05;4.07;;;2.23;;
11907;SDS011;6014;47.690;9.130;2023-04-03T04:06:34;4.87;;;2.47;;
11907;SDS011;6014;47.690;9.130;2023-04-03T04:09:08;4.03;;;2.30;;
11907;SDS011;6014;47.690;9.130;2023-04-03T04:11:38;3.83;;;2.13;;
11907;SDS011;6014;47.690;9.130;2023-04-03T04:14:06;5.43;;;2.20;;
11907;SDS011;6014;47.690;9.130;2023-04-03T04:16:36;5.10;;;2.37;;
11907;SDS011;6014;47.690;9.130;2023-04-03T04:19:04;6.13;;;2.40;;
11907;SDS011;6014;47.690;9.130;2023-04-03T04:21:34;4.07;;;2.40;;
11907;SDS011;6014;47.690;9.130;2023-04-03T04:24:02;4.53;;;2.67;;
11907;SDS011;6014;47.690;9.130;2023-04-03T04:26:30;5.00;;;2.13;;
11907;SDS011;6014;47.690;9.130;2023-04-03T04:29:00;4.50;;;2.63;;
11907;SDS011;6014;47.690;9.130;2023-04-03T04:31:28;5.83;;;2.30;;
11907;SDS011;6014;47.690;9.130;2023-04-03T04:33:57;4.70;;;2.40;;
11907;SDS011;6014;47.690;9.130;2023-04-03T04:36:25;4.00;;;2.20;;
11907;SDS011;6014;47.690;9.130;2023-04-03T04:38:53;4.17;;;2.40;;
11907;SDS011;6014;47.690;9.130;2023-04-03T04:41:21;4.90;;;2.40;;
11907;SDS011;6014;47.690;9.130;2023-04-03T04:43:49;4.10;;;2.60;;
11907;SDS011;6014;47.690;9.130;2023-04-03T04:46:22;5.30;;;2.67;;
11907;SDS011;6014;47.690;9.130;2023-04-03T04:51:31;4.23;;;2.50;;
11907;SDS011;6014;47.690;9.130;2023-04-03T04:56:41;4.33;;;2.30;;
11907;SDS011;6014;47.690;9.130;2023-04-03T04:59:09;6.17;;;2.47;;
11907;SDS011;6014;47.690;9.130;2023-04-03T05:01:38;4.00;;;2.47;;
11907;SDS011;6014;47.690;9.130;2023-04-03T05:04:16;4.93;;;2.30;;
11907;SDS011;6014;47.690;9.130;2023-04-03T05:06:44;3.70;;;2.07;;
11907;SDS011;6014;47.690;9.130;2023-04-03T05:09:12;4.53;;;2.13;;
11907;SDS011;6014;47.690;9.130;2023-04-03T05:11:41;4.50;;;2.30;;
11907;SDS011;6014;47.690;9.130;2023-04-03T05:14:09;4.10;;;2.10;;
11907;SDS011;6014;47.690;9.130;2023-04-03T05:16:49;4.43;;;2.20;;
11907;SDS011;6014;47.690;9.130;2023-04-03T05:19:19;3.80;;;2.20;;
11907;SDS011;6014;47.690;9.130;2023-04-03T05:21:47;5.47;;;2.27;;
11907;SDS011;6014;47.690;9.130;2023-04-03T05:24:15;3.57;;;2.10;;
11907;SDS011;6014;47.690;9.130;2023-04-03T05:26:43;3.77;;;2.00;;
11907;SDS011;6014;47.690;9.130;2023-04-03T05:29:12;3.03;;;2.17;;
11907;SDS011;6014;47.690;9.130;2023-04-03T05:31:40;4.83;;;2.60;;
11907;SDS011;6014;47.690;9.130;2023-04-03T05:34:09;3.57;;;2.00;;
11907;SDS011;6014;47.690;9.130;2023-04-03T05:36:37;3.17;;;2.10;;
11907;SDS011;6014;47.690;9.130;2023-04-03T05:39:06;3.07;;;1.80;;
11907;SDS011;6014;47.690;9.130;2023-04-03T05:41:34;4.43;;;2.30;;
11907;SDS011;6014;47.690;9.130;2023-04-03T05:44:02;4.77;;;2.47;;
11907;SDS011;6014;47.690;9.130;2023-04-03T05:46:30;3.07;;;2.00;;
11907;SDS011;6014;47.690;9.130;2023-04-03T05:48:58;3.07;;;1.60;;
11907;SDS011;6014;47.690;9.130;2023-04-03T05:51:29;3.43;;;1.77;;
11907;SDS011;6014;47.690;9.130;2023-04-03T05:54:03;4.10;;;2.20;;
11907;SDS011;6014;47.690;9.130;2023-04-03T05:56:36;3.73;;;2.07;;
11907;SDS011;6014;47.690;9.130;2023-04-03T06:02:00;4.87;;;2.30;;
11907;SDS011;6014;47.690;9.130;2023-04-03T06:04:29;4.70;;;2.53;;
11907;SDS011;6014;47.690;9.130;2023-04-03T06:06:58;4.43;;;2.20;;
11907;SDS011;6014;47.690;9.130;2023-04-03T06:09:27;4.20;;;2.00;;
11907;SDS011;6014;47.690;9.130;2023-04-03T06:11:56;3.87;;;1.90;;
11907;SDS011;6014;47.690;9.130;2023-04-03T06:14:25;3.70;;;2.13;;
11907;SDS011;6014;47.690;9.130;2023-04-03T06:16:53;3.30;;;1.90;;
11907;SDS011;6014;47.690;9.130;2023-04-03T06:19:33;4.07;;;2.50;;
11907;SDS011;6014;47.690;9.130;2023-04-03T06:22:03;3.87;;;2.13;;
11907;SDS011;6014;47.690;9.130;2023-04-03T06:24:31;3.80;;;2.03;;
11907;SDS011;6014;47.690;9.130;2023-04-03T06:27:00;3.17;;;1.63;;
11907;SDS011;6014;47.690;9.130;2023-04-03T06:29:28;7.03;;;2.13;;
11907;SDS011;6014;47.690;9.130;2023-04-03T06:32:01;5.70;;;2.13;;
11907;SDS011;6014;47.690;9.130;2023-04-03T06:34:29;4.13;;;2.03;;
11907;SDS011;6014;47.690;9.130;2023-04-03T06:36:57;3.53;;;1.97;;
11907;SDS011;6014;47.690;9.130;2023-04-03T06:39:27;4.00;;;1.93;;
11907;SDS011;6014;47.690;9.130;2023-04-03T06:41:55;4.30;;;2.30;;
11907;SDS011;6014;47.690;9.130;2023-04-03T06:44:25;3.57;;;1.90;;
11907;SDS011;6014;47.690;9.130;2023-04-03T06:46:53;4.07;;;2.03;;
11907;SDS011;6014;47.690;9.130;2023-04-03T06:49:21;4.07;;;2.20;;
11907;SDS011;6014;47.690;9.130;2023-04-03T06:51:49;3.33;;;2.00;;
11907;SDS011;6014;47.690;9.130;2023-04-03T06:54:18;5.17;;;2.37;;
11907;SDS011;6014;47.690;9.130;2023-04-03T06:56:48;4.10;;;2.10;;
11907;SDS011;6014;47.690;9.130;2023-04-03T06:59:16;4.27;;;2.43;;
11907;SDS011;6014;47.690;9.130;2023-04-03T07:01:45;5.03;;;2.10;;
11907;SDS011;6014;47.690;9.130;2023-04-03T07:04:13;3.97;;;1.97;;
11907;SDS011;6014;47.690;9.130;2023-04-03T07:06:42;3.47;;;2.00;;
11907;SDS011;6014;47.690;9.130;2023-04-03T07:09:10;4.37;;;2.47;;
11907;SDS011;6014;47.690;9.130;2023-04-03T07:11:38;3.60;;;2.20;;
11907;SDS011;6014;47.690;9.130;2023-04-03T07:14:09;4.73;;;2.40;;
11907;SDS011;6014;47.690;9.130;2023-04-03T07:16:37;4.43;;;2.47;;
11907;SDS011;6014;47.690;9.130;2023-04-03T07:19:07;5.27;;;2.03;;
11907;SDS011;6014;47.690;9.130;2023-04-03T07:21:42;4.97;;;2.50;;
11907;SDS011;6014;47.690;9.130;2023-04-03T07:24:11;4.07;;;2.17;;
11907;SDS011;6014;47.690;9.130;2023-04-03T07:26:42;3.63;;;1.77;;
11907;SDS011;6014;47.690;9.130;2023-04-03T07:29:12;4.93;;;2.23;;
11907;SDS011;6014;47.690;9.130;2023-04-03T07:31:40;4.30;;;2.10;;
11907;SDS011;6014;47.690;9.130;2023-04-03T07:34:11;3.77;;;2.00;;
11907;SDS011;6014;47.690;9.130;2023-04-03T07:36:39;4.40;;;2.20;;
11907;SDS011;6014;47.690;9.130;2023-04-03T07:39:08;3.47;;;2.10;;
11907;SDS011;6014;47.690;9.130;2023-04-03T07:41:37;4.37;;;2.10;;
11907;SDS011;6014;47.690;9.130;2023-04-03T07:44:05;4.53;;;2.10;;
11907;SDS011;6014;47.690;9.130;2023-04-03T07:46:37;4.47;;;2.30;;
11907;SDS011;6014;47.690;9.130;2023-04-03T07:49:05;4.20;;;2.50;;
11907;SDS011;6014;47.690;9.130;2023-04-03T07:51:33;4.53;;;2.33;;
11907;SDS011;6014;47.690;9.130;2023-04-03T07:54:02;3.27;;;2.07;;
11907;SDS011;6014;47.690;9.130;2023-04-03T07:56:30;4.17;;;2.20;;
11907;SDS011;6014;47.690;9.130;2023-04-03T07:58:58;5.07;;;2.67;;
11907;SDS011;6014;47.690;9.130;2023-04-03T08:01:26;4.50;;;2.33;;
11907;SDS011;6014;47.690;9.130;2023-04-03T08:03:55;3.87;;;2.27;;
11907;SDS011;6014;47.690;9.130;2023-04-03T08:06:23;4.07;;;2.43;;
11907;SDS011;6014;47.690;9.130;2023-04-03T08:09:11;3.50;;;2.03;;
11907;SDS011;6014;47.690;9.130;2023-04-03T08:11:39;4.67;;;2.30;;
11907;SDS011;6014;47.690;9.130;2023-04-03T08:14:08;4.77;;;2.27;;
11907;SDS011;6014;47.690;9.130;2023-04-03T08:16:41;4.70;;;2.63;;
11907;SDS011;6014;47.690;9.130;2023-04-03T08:19:12;5.03;;;3.33;;
11907;SDS011;6014;47.690;9.130;2023-04-03T08:21:54;4.27;;;2.20;;
11907;SDS011;6014;47.690;9.130;2023-04-03T08:24:23;4.07;;;2.33;;
11907;SDS011;6014;47.690;9.130;2023-04-03T08:26:51;4.73;;;2.47;;
11907;SDS011;6014;47.690;9.130;2023-04-03T08:29:19;4.40;;;2.67;;
11907;SDS011;6014;47.690;9.130;2023-04-03T08:31:48;4.37;;;2.50;;
11907;SDS011;6014;47.690;9.130;2023-04-03T08:34:18;4.30;;;2.30;;
11907;SDS011;6014;47.690;9.130;2023-04-03T08:36:46;5.50;;;2.47;;
11907;SDS011;6014;47.690;9.130;2023-04-03T08:39:14;5.37;;;2.80;;
11907;SDS011;6014;47.690;9.130;2023-04-03T08:41:44;5.17;;;2.77;;
11907;SDS011;6014;47.690;9.130;2023-04-03T08:44:15;5.27;;;2.70;;
11907;SDS011;6014;47.690;9.130;2023-04-03T08:46:54;4.33;;;2.43;;
11907;SDS011;6014;47.690;9.130;2023-04-03T08:49:31;5.00;;;2.70;;
11907;SDS011;6014;47.690;9.130;2023-04-03T08:52:04;6.20;;;2.80;;
11907;SDS011;6014;47.690;9.130;2023-04-03T08:54:37;4.63;;;2.20;;
11907;SDS011;6014;47.690;9.130;2023-04-03T08:57:17;6.03;;;2.63;;
11907;SDS011;6014;47.690;9.130;2023-04-03T08:59:53;8.67;;;2.47;;
11907;SDS011;6014;47.690;9.130;2023-04-03T09:02:24;3.70;;;2.10;;
11907;SDS011;6014;47.690;9.130;2023-04-03T09:04:56;4.60;;;2.63;;
11907;SDS011;6014;47.690;9.130;2023-04-03T09:07:29;3.83;;;2.33;;
11907;SDS011;6014;47.690;9.130;2023-04-03T09:10:03;4.47;;;2.43;;
11907;SDS011;6014;47.690;9.130;2023-04-03T09:12:33;4.10;;;2.50;;
11907;SDS011;6014;47.690;9.130;2023-04-03T09:15:08;4.40;;;2.60;;
11907;SDS011;6014;47.690;9.130;2023-04-03T09:17:51;5.60;;;2.90;;
11907;SDS011;6014;47.690;9.130;2023-04-03T09:20:30;6.23;;;2.57;;
11907;SDS011;6014;47.690;9.130;2023-04-03T09:23:11;4.97;;;2.70;;
11907;SDS011;6014;47.690;9.130;2023-04-03T09:25:44;4.37;;;2.30;;
11907;SDS011;6014;47.690;9.130;2023-04-03T09:28:15;6.00;;;2.53;;
11907;SDS011;6014;47.690;9.130;2023-04-03T09:30:43;4.70;;;2.50;;
11907;SDS011;6014;47.690;9.130;2023-04-03T09:33:11;6.73;;;2.70;;
11907;SDS011;6014;47.690;9.130;2023-04-03T09:35:42;4.80;;;2.50;;
11907;SDS011;6014;47.690;9.130;2023-04-03T09:38:15;5.70;;;2.90;;
11907;SDS011;6014;47.690;9.130;2023-04-03T09:40:46;4.97;;;2.63;;
11907;SDS011;6014;47.690;9.130;2023-04-03T09:43:21;4.53;;;2.40;;
11907;SDS011;6014;47.690;9.130;2023-04-03T09:45:56;6.27;;;3.30;;
11907;SDS011;6014;47.690;9.130;2023-04-03T09:48:52;4.67;;;2.30;;
11907;SDS011;6014;47.690;9.130;2023-04-03T09:51:36;4.07;;;2.60;;
11907;SDS011;6014;47.690;9.130;2023-04-03T09:57:07;7.40;;;2.77;;
11907;SDS011;6014;47.690;9.130;2023-04-03T09:59:44;5.23;;;2.47;;
11907;SDS011;6014;47.690;9.130;2023-04-03T10:02:28;4.33;;;2.37;;
11907;SDS011;6014;47.690;9.130;2023-04-03T10:05:01;6.03;;;2.50;;
11907;SDS011;6014;47.690;9.130;2023-04-03T10:07:35;3.77;;;2.20;;
11907;SDS011;6014;47.690;9.130;2023-04-03T10:10:16;3.10;;;2.00;;
11907;SDS011;6014;47.690;9.130;2023-04-03T10:12:46;5.30;;;2.50;;
11907;SDS011;6014;47.690;9.130;2023-04-03T10:15:15;4.20;;;2.50;;
11907;SDS011;6014;47.690;9.130;2023-04-03T10:17:51;4.90;;;2.60;;
11907;SDS011;6014;47.690;9.130;2023-04-03T10:20:29;4.73;;;2.43;;
11907;SDS011;6014;47.690;9.130;2023-04-03T10:23:05;4.43;;;2.43;;
11907;SDS011;6014;47.690;9.130;2023-04-03T10:25:43;4.43;;;2.37;;
11907;SDS011;6014;47.690;9.130;2023-04-03T10:28:17;5.17;;;2.70;;
11907;SDS011;6014;47.690;9.130;2023-04-03T10:30:52;4.53;;;2.50;;
11907;SDS011;6014;47.690;9.130;2023-04-03T10:33:29;5.23;;;2.40;;
11907;SDS011;6014;47.690;9.130;2023-04-03T10:36:12;4.57;;;2.30;;
11907;SDS011;6014;47.690;9.130;2023-04-03T10:38:54;5.07;;;2.57;;
11907;SDS011;6014;47.690;9.130;2023-04-03T10:41:32;4.80;;;2.30;;
11907;SDS011;6014;47.690;9.130;2023-04-03T10:44:10;3.90;;;2.10;;
11907;SDS011;6014;47.690;9.130;2023-04-03T10:46:47;4.77;;;2.27;;
11907;SDS011;6014;47.690;9.130;2023-04-03T10:49:22;6.20;;;2.53;;
11907;SDS011;6014;47.690;9.130;2023-04-03T10:52:00;3.20;;;1.97;;
11907;SDS011;6014;47.690;9.130;2023-04-03T10:54:39;4.57;;;2.50;;
11907;SDS011;6014;47.690;9.130;2023-04-03T10:57:11;5.90;;;2.33;;
11907;SDS011;6014;47.690;9.130;2023-04-03T10:59:40;4.60;;;2.30;;
11907;SDS011;6014;47.690;9.130;2023-04-03T11:02:23;5.43;;;2.60;;
11907;SDS011;6014;47.690;9.130;2023-04-03T11:04:56;4.27;;;2.50;;
11907;SDS011;6014;47.690;9.130;2023-04-03T11:07:29;4.23;;;2.30;;
11907;SDS011;6014;47.690;9.130;2023-04-03T11:10:09;6.70;;;2.67;;
11907;SDS011;6014;47.690;9.130;2023-04-03T11:12:43;4.73;;;2.53;;
11907;SDS011;6014;47.690;9.130;2023-04-03T11:15:15;6.40;;;2.50;;
11907;SDS011;6014;47.690;9.130;2023-04-03T11:17:46;5.23;;;2.70;;
11907;SDS011;6014;47.690;9.130;2023-04-03T11:20:19;5.33;;;2.33;;
11907;SDS011;6014;47.690;9.130;2023-04-03T11:22:56;3.83;;;2.00;;
11907;SDS011;6014;47.690;9.130;2023-04-03T11:25:31;4.63;;;2.40;;
11907;SDS011;6014;47.690;9.130;2023-04-03T11:28:02;4.73;;;2.97;;
11907;SDS011;6014;47.690;9.130;2023-04-03T11:30:33;3.70;;;2.17;;
11907;SDS011;6014;47.690;9.130;2023-04-03T11:33:12;4.27;;;2.10;;
11907;SDS011;6014;47.690;9.130;2023-04-03T11:35:59;3.67;;;2.30;;
11907;SDS011;6014;47.690;9.130;2023-04-03T11:38:51;4.33;;;2.10;;
11907;SDS011;6014;47.690;9.130;2023-04-03T11:41:26;4.13;;;2.30;;
11907;SDS011;6014;47.690;9.130;2023-04-03T11:43:56;4.40;;;2.33;;
11907;SDS011;6014;47.690;9.130;2023-04-03T11:58:21;4.03;;;2.20;;
11907;SDS011;6014;47.690;9.130;2023-04-03T12:00:51;6.67;;;2.63;;
11907;SDS011;6014;47.690;9.130;2023-04-03T12:09:34;4.83;;;2.30;;
11907;SDS011;6014;47.690;9.130;2023-04-03T12:12:37;4.57;;;1.93;;
11907;SDS011;6014;47.690;9.130;2023-04-03T12:21:16;3.60;;;2.07;;
11907;SDS011;6014;47.690;9.130;2023-04-03T12:23:59;3.70;;;1.93;;
11907;SDS011;6014;47.690;9.130;2023-04-03T12:26:34;4.40;;;2.30;;
11907;SDS011;6014;47.690;9.130;2023-04-03T12:29:15;6.93;;;2.83;;
11907;SDS011;6014;47.690;9.130;2023-04-03T12:31:54;5.07;;;2.23;;
11907;SDS011;6014;47.690;9.130;2023-04-03T12:34:37;3.77;;;2.03;;
11907;SDS011;6014;47.690;9.130;2023-04-03T12:37:19;5.00;;;2.30;;
11907;SDS011;6014;47.690;9.130;2023-04-03T12:40:01;4.23;;;2.13;;
11907;SDS011;6014;47.690;9.130;2023-04-03T12:42:48;3.80;;;2.03;;
11907;SDS011;6014;47.690;9.130;2023-04-03T12:45:37;5.37;;;2.13;;
11907;SDS011;6014;47.690;9.130;2023-04-03T12:48:13;4.10;;;2.10;;
11907;SDS011;6014;47.690;9.130;2023-04-03T12:50:43;4.23;;;1.97;;
11907;SDS011;6014;47.690;9.130;2023-04-03T12:53:15;3.77;;;1.70;;
11907;SDS011;6014;47.690;9.130;2023-04-03T12:55:45;5.40;;;1.87;;
11907;SDS011;6014;47.690;9.130;2023-04-03T12:58:14;3.60;;;2.07;;
11907;SDS011;6014;47.690;9.130;2023-04-03T13:00:44;4.83;;;2.00;;
11907;SDS011;6014;47.690;9.130;2023-04-03T13:03:21;4.80;;;1.90;;
11907;SDS011;6014;47.690;9.130;2023-04-03T13:05:54;4.33;;;2.10;;
11907;SDS011;6014;47.690;9.130;2023-04-03T13:08:24;3.20;;;1.90;;
11907;SDS011;6014;47.690;9.130;2023-04-03T13:10:54;5.03;;;1.93;;
11907;SDS011;6014;47.690;9.130;2023-04-03T13:13:25;2.90;;;1.70;;
11907;SDS011;6014;47.690;9.130;2023-04-03T13:15:53;5.53;;;2.13;;
11907;SDS011;6014;47.690;9.130;2023-04-03T13:18:24;3.53;;;1.80;;
11907;SDS011;6014;47.690;9.130;2023-04-03T13:20:59;4.60;;;1.80;;
11907;SDS011;6014;47.690;9.130;2023-04-03T13:23:29;3.60;;;1.90;;
11907;SDS011;6014;47.690;9.130;2023-04-03T13:25:59;2.67;;;1.70;;
11907;SDS011;6014;47.690;9.130;2023-04-03T13:28:30;2.50;;;1.60;;
11907;SDS011;6014;47.690;9.130;2023-04-03T13:31:01;3.33;;;1.77;;
11907;SDS011;6014;47.690;9.130;2023-04-03T13:33:35;3.53;;;1.83;;
11907;SDS011;6014;47.690;9.130;2023-04-03T13:36:06;3.63;;;1.80;;
11907;SDS011;6014;47.690;9.130;2023-04-03T13:38:40;3.83;;;1.70;;
11907;SDS011;6014;47.690;9.130;2023-04-03T13:41:22;4.63;;;2.03;;
11907;SDS011;6014;47.690;9.130;2023-04-03T13:43:52;2.23;;;1.50;;
11907;SDS011;6014;47.690;9.130;2023-04-03T13:46:32;2.67;;;1.57;;
11907;SDS011;6014;47.690;9.130;2023-04-03T13:49:01;4.03;;;2.10;;
11907;SDS011;6014;47.690;9.130;2023-04-03T13:51:45;3.87;;;2.00;;
11907;SDS011;6014;47.690;9.130;2023-04-03T13:54:31;6.77;;;2.13;;
11907;SDS011;6014;47.690;9.130;2023-04-03T13:57:02;2.73;;;1.90;;
11907;SDS011;6014;47.690;9.130;2023-04-03T13:59:31;3.70;;;2.10;;
11907;SDS011;6014;47.690;9.130;2023-04-03T14:02:12;3.73;;;2.20;;
11907;SDS011;6014;47.690;9.130;2023-04-03T14:04:49;3.03;;;1.67;;
11907;SDS011;6014;47.690;9.130;2023-04-03T14:07:22;5.40;;;1.77;;
11907;SDS011;6014;47.690;9.130;2023-04-03T14:09:53;4.47;;;2.00;;
11907;SDS011;6014;47.690;9.130;2023-04-03T14:12:24;4.07;;;1.87;;
11907;SDS011;6014;47.690;9.130;2023-04-03T14:14:57;3.90;;;2.10;;
11907;SDS011;6014;47.690;9.130;2023-04-03T14:17:27;5.47;;;2.33;;
11907;SDS011;6014;47.690;9.130;2023-04-03T14:19:57;4.87;;;2.23;;
11907;SDS011;6014;47.690;9.130;2023-04-03T14:22:28;2.97;;;1.73;;
11907;SDS011;6014;47.690;9.130;2023-04-03T14:24:58;4.43;;;2.20;;
11907;SDS011;6014;47.690;9.130;2023-04-03T14:27:27;5.80;;;2.30;;
11907;SDS011;6014;47.690;9.130;2023-04-03T14:29:58;3.60;;;1.90;;
11907;SDS011;6014;47.690;9.130;2023-04-03T14:32:27;3.27;;;1.70;;
11907;SDS011;6014;47.690;9.130;2023-04-03T14:34:59;2.93;;;1.80;;
11907;SDS011;6014;47.690;9.130;2023-04-03T14:37:27;3.30;;;1.90;;
11907;SDS011;6014;47.690;9.130;2023-04-03T14:39:57;3.80;;;1.97;;
11907;SDS011;6014;47.690;9.130;2023-04-03T14:42:28;3.97;;;2.10;;
11907;SDS011;6014;47.690;9.130;2023-04-03T14:44:58;3.53;;;1.90;;
11907;SDS011;6014;47.690;9.130;2023-04-03T14:47:28;4.00;;;2.10;;
11907;SDS011;6014;47.690;9.130;2023-04-03T14:49:59;3.40;;;2.00;;
11907;SDS011;6014;47.690;9.130;2023-04-03T14:52:28;4.00;;;2.10;;
11907;SDS011;6014;47.690;9.130;2023-04-03T14:54:58;3.30;;;1.80;;
11907;SDS011;6014;47.690;9.130;2023-04-03T14:57:28;4.17;;;2.00;;
11907;SDS011;6014;47.690;9.130;2023-04-03T14:59:57;3.13;;;1.90;;
11907;SDS011;6014;47.690;9.130;2023-04-03T15:02:28;4.87;;;1.93;;
11907;SDS011;6014;47.690;9.130;2023-04-03T15:04:59;4.47;;;1.90;;
11907;SDS011;6014;47.690;9.130;2023-04-03T15:07:31;4.63;;;2.03;;
11907;SDS011;6014;47.690;9.130;2023-04-03T15:10:03;3.13;;;1.93;;
11907;SDS011;6014;47.690;9.130;2023-04-03T15:12:41;5.63;;;2.63;;
11907;SDS011;6014;47.690;9.130;2023-04-03T15:15:09;4.30;;;2.17;;
11907;SDS011;6014;47.690;9.130;2023-04-03T15:17:40;3.63;;;1.90;;
11907;SDS011;6014;47.690;9.130;2023-04-03T15:22:47;5.97;;;1.93;;
11907;SDS011;6014;47.690;9.130;2023-04-03T15:25:15;7.10;;;2.20;;
11907;SDS011;6014;47.690;9.130;2023-04-03T15:27:46;3.40;;;1.90;;
11907;SDS011;6014;47.690;9.130;2023-04-03T15:30:17;5.03;;;2.20;;
11907;SDS011;6014;47.690;9.130;2023-04-03T15:32:46;5.63;;;2.40;;
11907;SDS011;6014;47.690;9.130;2023-04-03T15:35:16;3.07;;;1.90;;
11907;SDS011;6014;47.690;9.130;2023-04-03T15:37:50;4.97;;;2.47;;
11907;SDS011;6014;47.690;9.130;2023-04-03T15:40:25;4.03;;;1.93;;
11907;SDS011;6014;47.690;9.130;2023-04-03T15:42:57;3.57;;;1.87;;
11907;SDS011;6014;47.690;9.130;2023-04-03T15:45:27;4.53;;;2.00;;
11907;SDS011;6014;47.690;9.130;2023-04-03T15:48:05;4.60;;;2.30;;
11907;SDS011;6014;47.690;9.130;2023-04-03T15:50:35;3.23;;;2.00;;
11907;SDS011;6014;47.690;9.130;2023-04-03T15:53:16;3.93;;;2.13;;
11907;SDS011;6014;47.690;9.130;2023-04-03T15:55:44;5.07;;;2.03;;
11907;SDS011;6014;47.690;9.130;2023-04-03T16:03:22;4.77;;;2.40;;
11907;SDS011;6014;47.690;9.130;2023-04-03T16:05:52;4.57;;;2.03;;
11907;SDS011;6014;47.690;9.130;2023-04-03T16:08:27;4.83;;;2.17;;
11907;SDS011;6014;47.690;9.130;2023-04-03T16:10:55;5.70;;;2.10;;
11907;SDS011;6014;47.690;9.130;2023-04-03T16:13:23;3.47;;;2.10;;
11907;SDS011;6014;47.690;9.130;2023-04-03T16:15:52;4.13;;;2.10;;
11907;SDS011;6014;47.690;9.130;2023-04-03T16:18:20;3.77;;;2.17;;
11907;SDS011;6014;47.690;9.130;2023-04-03T16:20:48;4.27;;;2.10;;